sensor_id;sensor_type;location;lat;lon;timestamp;P1;durP1;ratioP1;P2;durP2;ratioP2
7729;SDS011;3908;52.310;7.230;2023-02-28T00:00:38;10.87;;;7.00;;
7729;SDS011;3908;52.310;7.230;2023-02-28T00:03:25;14.23;;;7.57;;
7729;SDS011;3908;52.310;7.230;2023-02-28T00:06:12;10.10;;;7.10;;
7729;SDS011;3908;52.310;7.230;2023-02-28T00:09:00;12.13;;;6.77;;
7729;SDS011;3908;52.310;7.230;2023-02-28T00:11:47;13.63;;;6.67;;
7729;SDS011;3908;52.310;7.230;2023-02-28T00:14:34;10.63;;;6.60;;
7729;SDS011;3908;52.310;7.230;2023-02-28T00:17:21;9.33;;;7.00;;
7729;SDS011;3908;52.310;7.230;2023-02-28T00:20:09;9.70;;;6.23;;
7729;SDS011;3908;52.310;7.230;2023-02-28T00:22:58;12.50;;;6.80;;
7729;SDS011;3908;52.310;7.230;2023-02-28T00:25:46;14.40;;;6.83;;
7729;SDS011;3908;52.310;7.230;2023-02-28T00:28:33;9.73;;;6.93;;
7729;SDS011;3908;52.310;7.230;2023-02-28T00:31:20;9.77;;;6.27;;
7729;SDS011;3908;52.310;7.230;2023-02-28T00:34:07;10.47;;;6.60;;
7729;SDS011;3908;52.310;7.230;2023-02-28T00:36:54;8.67;;;6.03;;
7729;SDS011;3908;52.310;7.230;2023-02-28T00:39:41;13.23;;;6.70;;
7729;SDS011;3908;52.310;7.230;2023-02-28T00:42:29;10.20;;;7.03;;
7729;SDS011;3908;52.310;7.230;2023-02-28T00:45:16;12.40;;;6.73;;
7729;SDS011;3908;52.310;7.230;2023-02-28T00:48:04;10.77;;;6.53;;
7729;SDS011;3908;52.310;7.230;2023-02-28T00:50:51;9.10;;;6.30;;
7729;SDS011;3908;52.310;7.230;2023-02-28T00:53:38;10.07;;;6.50;;
7729;SDS011;3908;52.310;7.230;2023-02-28T00:56:25;10.17;;;5.50;;
7729;SDS011;3908;52.310;7.230;2023-02-28T00:59:14;9.23;;;6.17;;
7729;SDS011;3908;52.310;7.230;2023-02-28T01:02:01;7.90;;;6.00;;
7729;SDS011;3908;52.310;7.230;2023-02-28T01:04:48;10.80;;;5.87;;
7729;SDS011;3908;52.310;7.230;2023-02-28T01:07:35;12.23;;;5.97;;
7729;SDS011;3908;52.310;7.230;2023-02-28T01:10:24;7.60;;;5.20;;
7729;SDS011;3908;52.310;7.230;2023-02-28T01:13:11;8.70;;;5.60;;
7729;SDS011;3908;52.310;7.230;2023-02-28T01:16:00;8.17;;;5.90;;
7729;SDS011;3908;52.310;7.230;2023-02-28T01:18:47;9.77;;;5.87;;
7729;SDS011;3908;52.310;7.230;2023-02-28T01:21:34;10.17;;;6.13;;
7729;SDS011;3908;52.310;7.230;2023-02-28T01:24:21;8.83;;;6.03;;
7729;SDS011;3908;52.310;7.230;2023-02-28T01:27:08;11.40;;;5.53;;
7729;SDS011;3908;52.310;7.230;2023-02-28T01:29:55;10.63;;;5.83;;
7729;SDS011;3908;52.310;7.230;2023-02-28T01:32:44;8.43;;;5.43;;
7729;SDS011;3908;52.310;7.230;2023-02-28T01:35:32;8.40;;;5.43;;
7729;SDS011;3908;52.310;7.230;2023-02-28T01:38:19;8.27;;;5.20;;
7729;SDS011;3908;52.310;7.230;2023-02-28T01:41:06;9.27;;;6.07;;
7729;SDS011;3908;52.310;7.230;2023-02-28T01:43:55;8.67;;;5.73;;
7729;SDS011;3908;52.310;7.230;2023-02-28T01:46:49;8.10;;;5.87;;
7729;SDS011;3908;52.310;7.230;2023-02-28T01:49:37;7.67;;;5.27;;
7729;SDS011;3908;52.310;7.230;2023-02-28T01:52:24;9.13;;;5.33;;
7729;SDS011;3908;52.310;7.230;2023-02-28T01:55:14;10.20;;;5.50;;
7729;SDS011;3908;52.310;7.230;2023-02-28T01:58:03;8.10;;;5.53;;
7729;SDS011;3908;52.310;7.230;2023-02-28T02:00:52;7.50;;;5.50;;
7729;SDS011;3908;52.310;7.230;2023-02-28T02:03:39;8.10;;;5.70;;
7729;SDS011;3908;52.310;7.230;2023-02-28T02:06:29;11.03;;;6.80;;
7729;SDS011;3908;52.310;7.230;2023-02-28T02:09:21;9.53;;;5.87;;
7729;SDS011;3908;52.310;7.230;2023-02-28T02:12:10;9.43;;;5.60;;
7729;SDS011;3908;52.310;7.230;2023-02-28T02:15:06;7.20;;;5.23;;
7729;SDS011;3908;52.310;7.230;2023-02-28T02:18:00;13.40;;;5.63;;
7729;SDS011;3908;52.310;7.230;2023-02-28T02:21:03;7.80;;;5.63;;
7729;SDS011;3908;52.310;7.230;2023-02-28T02:24:09;7.13;;;5.67;;
7729;SDS011;3908;52.310;7.230;2023-02-28T02:27:24;10.43;;;6.17;;
7729;SDS011;3908;52.310;7.230;2023-02-28T02:30:27;10.37;;;6.27;;
7729;SDS011;3908;52.310;7.230;2023-02-28T02:33:44;8.57;;;5.77;;
7729;SDS011;3908;52.310;7.230;2023-02-28T02:36:53;8.60;;;5.77;;
7729;SDS011;3908;52.310;7.230;2023-02-28T02:39:50;9.17;;;6.10;;
7729;SDS011;3908;52.310;7.230;2023-02-28T02:42:42;9.60;;;6.40;;
7729;SDS011;3908;52.310;7.230;2023-02-28T02:45:37;8.17;;;5.60;;
7729;SDS011;3908;52.310;7.230;2023-02-28T02:48:29;10.90;;;6.53;;
7729;SDS011;3908;52.310;7.230;2023-02-28T02:51:19;10.37;;;5.73;;
7729;SDS011;3908;52.310;7.230;2023-02-28T02:54:11;10.80;;;6.33;;
7729;SDS011;3908;52.310;7.230;2023-02-28T02:57:03;11.47;;;5.90;;
7729;SDS011;3908;52.310;7.230;2023-02-28T02:59:54;10.43;;;6.10;;
7729;SDS011;3908;52.310;7.230;2023-02-28T03:02:43;11.20;;;6.10;;
7729;SDS011;3908;52.310;7.230;2023-02-28T03:05:34;8.40;;;6.43;;
7729;SDS011;3908;52.310;7.230;2023-02-28T03:08:26;10.37;;;6.50;;
7729;SDS011;3908;52.310;7.230;2023-02-28T03:11:15;9.10;;;5.30;;
7729;SDS011;3908;52.310;7.230;2023-02-28T03:14:09;8.93;;;5.73;;
7729;SDS011;3908;52.310;7.230;2023-02-28T03:17:16;11.10;;;5.60;;
7729;SDS011;3908;52.310;7.230;2023-02-28T03:20:18;8.93;;;5.47;;
7729;SDS011;3908;52.310;7.230;2023-02-28T03:23:19;8.23;;;5.83;;
7729;SDS011;3908;52.310;7.230;2023-02-28T03:26:12;10.80;;;5.90;;
7729;SDS011;3908;52.310;7.230;2023-02-28T03:29:06;9.97;;;5.60;;
7729;SDS011;3908;52.310;7.230;2023-02-28T03:32:03;13.33;;;6.07;;
7729;SDS011;3908;52.310;7.230;2023-02-28T03:34:54;10.97;;;5.90;;
7729;SDS011;3908;52.310;7.230;2023-02-28T03:37:49;12.00;;;5.67;;
7729;SDS011;3908;52.310;7.230;2023-02-28T03:40:42;9.70;;;5.60;;
7729;SDS011;3908;52.310;7.230;2023-02-28T03:43:35;7.67;;;5.40;;
7729;SDS011;3908;52.310;7.230;2023-02-28T03:46:28;11.80;;;5.70;;
7729;SDS011;3908;52.310;7.230;2023-02-28T03:49:22;8.60;;;5.50;;
7729;SDS011;3908;52.310;7.230;2023-02-28T03:52:12;8.13;;;5.33;;
7729;SDS011;3908;52.310;7.230;2023-02-28T03:55:02;11.60;;;6.00;;
7729;SDS011;3908;52.310;7.230;2023-02-28T03:57:56;8.40;;;5.23;;
7729;SDS011;3908;52.310;7.230;2023-02-28T04:00:49;7.80;;;5.57;;
7729;SDS011;3908;52.310;7.230;2023-02-28T04:03:40;7.10;;;5.03;;
7729;SDS011;3908;52.310;7.230;2023-02-28T04:06:27;7.20;;;5.13;;
7729;SDS011;3908;52.310;7.230;2023-02-28T04:09:18;7.50;;;5.17;;
7729;SDS011;3908;52.310;7.230;2023-02-28T04:12:05;7.73;;;6.03;;
7729;SDS011;3908;52.310;7.230;2023-02-28T04:14:52;9.47;;;5.17;;
7729;SDS011;3908;52.310;7.230;2023-02-28T04:17:39;8.10;;;5.80;;
7729;SDS011;3908;52.310;7.230;2023-02-28T04:20:28;8.37;;;6.00;;
7729;SDS011;3908;52.310;7.230;2023-02-28T04:23:15;7.17;;;4.53;;
7729;SDS011;3908;52.310;7.230;2023-02-28T04:26:02;8.60;;;5.03;;
7729;SDS011;3908;52.310;7.230;2023-02-28T04:28:50;8.43;;;5.40;;
7729;SDS011;3908;52.310;7.230;2023-02-28T04:31:37;8.37;;;6.10;;
7729;SDS011;3908;52.310;7.230;2023-02-28T04:34:25;6.73;;;5.33;;
7729;SDS011;3908;52.310;7.230;2023-02-28T04:37:14;5.53;;;4.93;;
7729;SDS011;3908;52.310;7.230;2023-02-28T04:40:01;7.67;;;5.40;;
7729;SDS011;3908;52.310;7.230;2023-02-28T04:42:49;8.33;;;5.17;;
7729;SDS011;3908;52.310;7.230;2023-02-28T04:45:36;6.77;;;5.67;;
7729;SDS011;3908;52.310;7.230;2023-02-28T04:48:23;9.70;;;5.30;;
7729;SDS011;3908;52.310;7.230;2023-02-28T04:51:11;5.40;;;4.50;;
7729;SDS011;3908;52.310;7.230;2023-02-28T04:54:01;10.43;;;4.97;;
7729;SDS011;3908;52.310;7.230;2023-02-28T04:56:48;9.97;;;5.37;;
7729;SDS011;3908;52.310;7.230;2023-02-28T04:59:35;6.10;;;5.03;;
7729;SDS011;3908;52.310;7.230;2023-02-28T05:02:22;7.00;;;5.20;;
7729;SDS011;3908;52.310;7.230;2023-02-28T05:05:09;6.17;;;4.87;;
7729;SDS011;3908;52.310;7.230;2023-02-28T05:07:57;7.43;;;5.60;;
7729;SDS011;3908;52.310;7.230;2023-02-28T05:10:45;7.53;;;5.17;;
7729;SDS011;3908;52.310;7.230;2023-02-28T05:13:32;7.00;;;5.40;;
7729;SDS011;3908;52.310;7.230;2023-02-28T05:16:20;9.23;;;6.07;;
7729;SDS011;3908;52.310;7.230;2023-02-28T05:19:07;6.07;;;5.33;;
7729;SDS011;3908;52.310;7.230;2023-02-28T05:21:54;7.07;;;5.30;;
7729;SDS011;3908;52.310;7.230;2023-02-28T05:24:42;9.10;;;6.17;;
7729;SDS011;3908;52.310;7.230;2023-02-28T05:27:30;10.07;;;5.57;;
7729;SDS011;3908;52.310;7.230;2023-02-28T05:30:17;9.83;;;5.33;;
7729;SDS011;3908;52.310;7.230;2023-02-28T05:33:04;8.20;;;5.57;;
7729;SDS011;3908;52.310;7.230;2023-02-28T05:35:51;8.00;;;5.80;;
7729;SDS011;3908;52.310;7.230;2023-02-28T05:38:38;7.90;;;5.50;;
7729;SDS011;3908;52.310;7.230;2023-02-28T05:41:25;8.13;;;5.30;;
7729;SDS011;3908;52.310;7.230;2023-02-28T05:44:14;8.50;;;6.00;;
7729;SDS011;3908;52.310;7.230;2023-02-28T05:47:02;11.17;;;5.90;;
7729;SDS011;3908;52.310;7.230;2023-02-28T05:49:49;7.57;;;5.03;;
7729;SDS011;3908;52.310;7.230;2023-02-28T05:52:36;8.83;;;6.07;;
7729;SDS011;3908;52.310;7.230;2023-02-28T05:55:23;8.10;;;5.07;;
7729;SDS011;3908;52.310;7.230;2023-02-28T05:58:10;9.43;;;5.80;;
7729;SDS011;3908;52.310;7.230;2023-02-28T06:00:58;9.30;;;5.23;;
7729;SDS011;3908;52.310;7.230;2023-02-28T06:03:46;10.23;;;5.67;;
7729;SDS011;3908;52.310;7.230;2023-02-28T06:06:33;9.73;;;5.10;;
7729;SDS011;3908;52.310;7.230;2023-02-28T06:09:21;8.10;;;5.83;;
7729;SDS011;3908;52.310;7.230;2023-02-28T06:12:09;11.20;;;6.10;;
7729;SDS011;3908;52.310;7.230;2023-02-28T06:14:56;9.40;;;5.63;;
7729;SDS011;3908;52.310;7.230;2023-02-28T06:17:45;8.53;;;5.53;;
7729;SDS011;3908;52.310;7.230;2023-02-28T06:20:32;7.70;;;6.07;;
7729;SDS011;3908;52.310;7.230;2023-02-28T06:23:19;9.10;;;6.20;;
7729;SDS011;3908;52.310;7.230;2023-02-28T06:26:07;9.50;;;6.23;;
7729;SDS011;3908;52.310;7.230;2023-02-28T06:28:54;11.43;;;6.67;;
7729;SDS011;3908;52.310;7.230;2023-02-28T06:31:41;8.83;;;5.87;;
7729;SDS011;3908;52.310;7.230;2023-02-28T06:34:30;11.40;;;5.90;;
7729;SDS011;3908;52.310;7.230;2023-02-28T06:37:19;6.93;;;5.27;;
7729;SDS011;3908;52.310;7.230;2023-02-28T06:40:06;7.37;;;5.80;;
7729;SDS011;3908;52.310;7.230;2023-02-28T06:42:55;10.27;;;6.20;;
7729;SDS011;3908;52.310;7.230;2023-02-28T06:45:42;9.57;;;6.87;;
7729;SDS011;3908;52.310;7.230;2023-02-28T06:48:30;10.30;;;6.17;;
7729;SDS011;3908;52.310;7.230;2023-02-28T06:51:19;7.47;;;5.50;;
7729;SDS011;3908;52.310;7.230;2023-02-28T06:54:07;9.77;;;6.53;;
7729;SDS011;3908;52.310;7.230;2023-02-28T06:56:56;8.13;;;5.93;;
7729;SDS011;3908;52.310;7.230;2023-02-28T06:59:44;6.57;;;5.60;;
7729;SDS011;3908;52.310;7.230;2023-02-28T07:02:31;8.20;;;5.93;;
7729;SDS011;3908;52.310;7.230;2023-02-28T07:05:18;10.50;;;5.63;;
7729;SDS011;3908;52.310;7.230;2023-02-28T07:08:06;10.43;;;6.50;;
7729;SDS011;3908;52.310;7.230;2023-02-28T07:10:53;10.27;;;6.43;;
7729;SDS011;3908;52.310;7.230;2023-02-28T07:13:41;7.77;;;6.13;;
7729;SDS011;3908;52.310;7.230;2023-02-28T07:16:28;10.90;;;6.40;;
7729;SDS011;3908;52.310;7.230;2023-02-28T07:19:15;10.97;;;6.43;;
7729;SDS011;3908;52.310;7.230;2023-02-28T07:22:02;9.20;;;6.40;;
7729;SDS011;3908;52.310;7.230;2023-02-28T07:24:51;8.57;;;6.20;;
7729;SDS011;3908;52.310;7.230;2023-02-28T07:27:38;9.67;;;5.90;;
7729;SDS011;3908;52.310;7.230;2023-02-28T07:30:25;8.00;;;5.43;;
7729;SDS011;3908;52.310;7.230;2023-02-28T07:33:12;7.87;;;5.00;;
7729;SDS011;3908;52.310;7.230;2023-02-28T07:36:02;8.37;;;5.50;;
7729;SDS011;3908;52.310;7.230;2023-02-28T07:38:51;10.03;;;5.77;;
7729;SDS011;3908;52.310;7.230;2023-02-28T07:41:39;6.07;;;4.70;;
7729;SDS011;3908;52.310;7.230;2023-02-28T07:44:28;7.27;;;4.87;;
7729;SDS011;3908;52.310;7.230;2023-02-28T07:47:15;5.50;;;4.73;;
7729;SDS011;3908;52.310;7.230;2023-02-28T07:50:03;6.43;;;4.43;;
7729;SDS011;3908;52.310;7.230;2023-02-28T07:52:50;8.97;;;4.10;;
7729;SDS011;3908;52.310;7.230;2023-02-28T07:55:37;7.90;;;4.60;;
7729;SDS011;3908;52.310;7.230;2023-02-28T07:58:26;7.37;;;4.33;;
7729;SDS011;3908;52.310;7.230;2023-02-28T08:01:14;6.33;;;3.80;;
7729;SDS011;3908;52.310;7.230;2023-02-28T08:04:02;5.37;;;3.50;;
7729;SDS011;3908;52.310;7.230;2023-02-28T08:06:49;5.43;;;3.40;;
7729;SDS011;3908;52.310;7.230;2023-02-28T08:09:38;5.77;;;3.53;;
7729;SDS011;3908;52.310;7.230;2023-02-28T08:12:25;8.53;;;4.50;;
7729;SDS011;3908;52.310;7.230;2023-02-28T08:15:14;6.30;;;3.90;;
7729;SDS011;3908;52.310;7.230;2023-02-28T08:18:01;5.73;;;3.60;;
7729;SDS011;3908;52.310;7.230;2023-02-28T08:20:48;8.17;;;3.37;;
7729;SDS011;3908;52.310;7.230;2023-02-28T08:23:35;3.93;;;3.20;;
7729;SDS011;3908;52.310;7.230;2023-02-28T08:26:23;5.67;;;3.60;;
7729;SDS011;3908;52.310;7.230;2023-02-28T08:29:11;6.53;;;3.00;;
7729;SDS011;3908;52.310;7.230;2023-02-28T08:31:59;4.13;;;2.43;;
7729;SDS011;3908;52.310;7.230;2023-02-28T08:34:46;3.57;;;2.50;;
7729;SDS011;3908;52.310;7.230;2023-02-28T08:37:33;2.53;;;1.80;;
7729;SDS011;3908;52.310;7.230;2023-02-28T08:40:20;1.90;;;1.70;;
7729;SDS011;3908;52.310;7.230;2023-02-28T08:43:07;2.03;;;1.43;;
7729;SDS011;3908;52.310;7.230;2023-02-28T08:45:54;2.33;;;1.80;;
7729;SDS011;3908;52.310;7.230;2023-02-28T08:48:43;2.00;;;1.70;;
7729;SDS011;3908;52.310;7.230;2023-02-28T08:51:30;4.60;;;1.90;;
7729;SDS011;3908;52.310;7.230;2023-02-28T08:54:17;2.23;;;1.80;;
7729;SDS011;3908;52.310;7.230;2023-02-28T08:57:04;2.00;;;1.77;;
7729;SDS011;3908;52.310;7.230;2023-02-28T08:59:51;2.10;;;1.87;;
7729;SDS011;3908;52.310;7.230;2023-02-28T09:02:38;3.93;;;1.90;;
7729;SDS011;3908;52.310;7.230;2023-02-28T09:05:27;4.27;;;2.27;;
7729;SDS011;3908;52.310;7.230;2023-02-28T09:08:15;2.67;;;2.00;;
7729;SDS011;3908;52.310;7.230;2023-02-28T09:11:02;2.23;;;1.63;;
7729;SDS011;3908;52.310;7.230;2023-02-28T09:13:50;2.30;;;1.93;;
7729;SDS011;3908;52.310;7.230;2023-02-28T09:16:37;2.10;;;1.80;;
7729;SDS011;3908;52.310;7.230;2023-02-28T09:19:24;2.37;;;1.63;;
7729;SDS011;3908;52.310;7.230;2023-02-28T09:22:12;3.23;;;1.83;;
7729;SDS011;3908;52.310;7.230;2023-02-28T09:24:59;5.20;;;1.90;;
7729;SDS011;3908;52.310;7.230;2023-02-28T09:27:46;3.07;;;1.60;;
7729;SDS011;3908;52.310;7.230;2023-02-28T09:30:33;3.50;;;1.80;;
7729;SDS011;3908;52.310;7.230;2023-02-28T09:33:21;1.97;;;1.43;;
7729;SDS011;3908;52.310;7.230;2023-02-28T09:36:08;2.47;;;1.40;;
7729;SDS011;3908;52.310;7.230;2023-02-28T09:38:57;2.43;;;1.20;;
7729;SDS011;3908;52.310;7.230;2023-02-28T09:41:44;1.30;;;1.10;;
7729;SDS011;3908;52.310;7.230;2023-02-28T09:44:36;2.00;;;1.00;;
7729;SDS011;3908;52.310;7.230;2023-02-28T09:47:27;1.40;;;1.10;;
7729;SDS011;3908;52.310;7.230;2023-02-28T09:50:21;1.27;;;1.00;;
7729;SDS011;3908;52.310;7.230;2023-02-28T09:53:15;1.43;;;1.33;;
7729;SDS011;3908;52.310;7.230;2023-02-28T09:56:09;1.83;;;1.33;;
7729;SDS011;3908;52.310;7.230;2023-02-28T09:59:01;2.10;;;1.40;;
7729;SDS011;3908;52.310;7.230;2023-02-28T10:01:54;2.33;;;1.20;;
7729;SDS011;3908;52.310;7.230;2023-02-28T10:04:50;4.33;;;1.53;;
7729;SDS011;3908;52.310;7.230;2023-02-28T10:07:46;2.40;;;1.30;;
7729;SDS011;3908;52.310;7.230;2023-02-28T10:10:41;3.70;;;1.57;;
7729;SDS011;3908;52.310;7.230;2023-02-28T10:13:33;2.03;;;1.40;;
7729;SDS011;3908;52.310;7.230;2023-02-28T10:16:24;1.60;;;1.40;;
7729;SDS011;3908;52.310;7.230;2023-02-28T10:19:16;2.03;;;1.50;;
7729;SDS011;3908;52.310;7.230;2023-02-28T10:22:10;2.53;;;1.70;;
7729;SDS011;3908;52.310;7.230;2023-02-28T10:25:01;1.77;;;1.60;;
7729;SDS011;3908;52.310;7.230;2023-02-28T10:28:08;2.50;;;1.57;;
7729;SDS011;3908;52.310;7.230;2023-02-28T10:30:58;3.47;;;1.50;;
7729;SDS011;3908;52.310;7.230;2023-02-28T10:33:46;2.97;;;1.70;;
7729;SDS011;3908;52.310;7.230;2023-02-28T10:36:34;1.90;;;1.70;;
7729;SDS011;3908;52.310;7.230;2023-02-28T10:39:34;2.63;;;1.87;;
7729;SDS011;3908;52.310;7.230;2023-02-28T10:42:24;2.30;;;1.47;;
7729;SDS011;3908;52.310;7.230;2023-02-28T10:45:13;2.27;;;1.80;;
7729;SDS011;3908;52.310;7.230;2023-02-28T10:48:04;3.03;;;2.03;;
7729;SDS011;3908;52.310;7.230;2023-02-28T10:51:12;2.23;;;1.80;;
7729;SDS011;3908;52.310;7.230;2023-02-28T10:54:01;1.60;;;1.50;;
7729;SDS011;3908;52.310;7.230;2023-02-28T11:00:08;2.23;;;1.80;;
7729;SDS011;3908;52.310;7.230;2023-02-28T11:03:03;2.73;;;1.60;;
7729;SDS011;3908;52.310;7.230;2023-02-28T11:06:13;2.07;;;1.80;;
7729;SDS011;3908;52.310;7.230;2023-02-28T11:09:04;2.77;;;1.93;;
7729;SDS011;3908;52.310;7.230;2023-02-28T11:12:03;2.10;;;1.90;;
7729;SDS011;3908;52.310;7.230;2023-02-28T11:14:53;2.27;;;1.70;;
7729;SDS011;3908;52.310;7.230;2023-02-28T11:17:42;2.73;;;1.83;;
7729;SDS011;3908;52.310;7.230;2023-02-28T11:20:31;2.10;;;1.63;;
7729;SDS011;3908;52.310;7.230;2023-02-28T11:23:20;2.50;;;1.50;;
7729;SDS011;3908;52.310;7.230;2023-02-28T11:26:08;1.77;;;1.30;;
7729;SDS011;3908;52.310;7.230;2023-02-28T11:29:03;3.60;;;1.47;;
7729;SDS011;3908;52.310;7.230;2023-02-28T11:32:03;3.33;;;1.70;;
7729;SDS011;3908;52.310;7.230;2023-02-28T11:35:03;4.47;;;1.70;;
7729;SDS011;3908;52.310;7.230;2023-02-28T11:38:02;2.33;;;1.63;;
7729;SDS011;3908;52.310;7.230;2023-02-28T11:40:51;2.07;;;1.60;;
7729;SDS011;3908;52.310;7.230;2023-02-28T11:43:58;4.00;;;1.73;;
7729;SDS011;3908;52.310;7.230;2023-02-28T11:46:58;2.97;;;1.63;;
7729;SDS011;3908;52.310;7.230;2023-02-28T11:49:53;2.23;;;1.80;;
7729;SDS011;3908;52.310;7.230;2023-02-28T11:52:59;2.63;;;1.67;;
7729;SDS011;3908;52.310;7.230;2023-02-28T11:55:53;2.30;;;1.70;;
7729;SDS011;3908;52.310;7.230;2023-02-28T11:58:50;2.67;;;1.60;;
7729;SDS011;3908;52.310;7.230;2023-02-28T12:01:53;2.00;;;1.67;;
7729;SDS011;3908;52.310;7.230;2023-02-28T12:05:09;2.37;;;1.77;;
7729;SDS011;3908;52.310;7.230;2023-02-28T12:08:07;3.23;;;1.63;;
7729;SDS011;3908;52.310;7.230;2023-02-28T12:11:10;1.90;;;1.70;;
7729;SDS011;3908;52.310;7.230;2023-02-28T12:14:15;2.43;;;1.70;;
7729;SDS011;3908;52.310;7.230;2023-02-28T12:17:18;2.00;;;1.77;;
7729;SDS011;3908;52.310;7.230;2023-02-28T12:20:14;2.27;;;1.63;;
7729;SDS011;3908;52.310;7.230;2023-02-28T12:23:17;2.80;;;1.73;;
7729;SDS011;3908;52.310;7.230;2023-02-28T12:26:16;1.90;;;1.70;;
7729;SDS011;3908;52.310;7.230;2023-02-28T12:29:12;2.20;;;1.53;;
7729;SDS011;3908;52.310;7.230;2023-02-28T12:32:05;2.43;;;1.60;;
7729;SDS011;3908;52.310;7.230;2023-02-28T12:34:57;3.00;;;1.73;;
7729;SDS011;3908;52.310;7.230;2023-02-28T12:37:49;1.90;;;1.60;;
7729;SDS011;3908;52.310;7.230;2023-02-28T12:40:43;2.03;;;1.60;;
7729;SDS011;3908;52.310;7.230;2023-02-28T12:43:34;2.33;;;1.70;;
7729;SDS011;3908;52.310;7.230;2023-02-28T12:46:25;1.73;;;1.60;;
7729;SDS011;3908;52.310;7.230;2023-02-28T12:49:17;3.43;;;1.70;;
7729;SDS011;3908;52.310;7.230;2023-02-28T12:52:11;1.67;;;1.57;;
7729;SDS011;3908;52.310;7.230;2023-02-28T12:55:03;2.20;;;1.70;;
7729;SDS011;3908;52.310;7.230;2023-02-28T12:57:58;2.17;;;1.83;;
7729;SDS011;3908;52.310;7.230;2023-02-28T13:01:04;1.90;;;1.60;;
7729;SDS011;3908;52.310;7.230;2023-02-28T13:11:00;2.60;;;1.67;;
7729;SDS011;3908;52.310;7.230;2023-02-28T13:13:48;2.47;;;1.40;;
7729;SDS011;3908;52.310;7.230;2023-02-28T13:19:57;4.60;;;1.53;;
7729;SDS011;3908;52.310;7.230;2023-02-28T13:22:46;1.50;;;1.40;;
7729;SDS011;3908;52.310;7.230;2023-02-28T13:38:31;3.10;;;1.80;;
7729;SDS011;3908;52.310;7.230;2023-02-28T13:48:03;2.30;;;1.63;;
7729;SDS011;3908;52.310;7.230;2023-02-28T13:50:51;2.60;;;1.80;;
7729;SDS011;3908;52.310;7.230;2023-02-28T13:53:46;3.60;;;1.93;;
7729;SDS011;3908;52.310;7.230;2023-02-28T13:56:46;3.13;;;1.80;;
7729;SDS011;3908;52.310;7.230;2023-02-28T13:59:44;2.57;;;1.90;;
7729;SDS011;3908;52.310;7.230;2023-02-28T14:02:42;2.20;;;1.93;;
7729;SDS011;3908;52.310;7.230;2023-02-28T14:05:41;2.77;;;1.90;;
7729;SDS011;3908;52.310;7.230;2023-02-28T14:08:29;4.87;;;1.67;;
7729;SDS011;3908;52.310;7.230;2023-02-28T14:11:24;1.70;;;1.60;;
7729;SDS011;3908;52.310;7.230;2023-02-28T14:17:42;2.37;;;1.90;;
7729;SDS011;3908;52.310;7.230;2023-02-28T14:20:29;3.17;;;1.90;;
7729;SDS011;3908;52.310;7.230;2023-02-28T14:23:24;5.03;;;1.80;;
7729;SDS011;3908;52.310;7.230;2023-02-28T14:26:33;1.90;;;1.70;;
7729;SDS011;3908;52.310;7.230;2023-02-28T14:29:43;3.93;;;1.90;;
7729;SDS011;3908;52.310;7.230;2023-02-28T14:33:20;4.20;;;1.97;;
7729;SDS011;3908;52.310;7.230;2023-02-28T14:36:14;2.97;;;2.17;;
7729;SDS011;3908;52.310;7.230;2023-02-28T14:39:10;4.07;;;1.80;;
7729;SDS011;3908;52.310;7.230;2023-02-28T14:42:00;4.83;;;2.20;;
7729;SDS011;3908;52.310;7.230;2023-02-28T14:44:53;2.60;;;1.90;;
7729;SDS011;3908;52.310;7.230;2023-02-28T14:47:41;3.00;;;2.03;;
7729;SDS011;3908;52.310;7.230;2023-02-28T14:50:29;3.23;;;2.53;;
7729;SDS011;3908;52.310;7.230;2023-02-28T14:53:18;5.67;;;2.00;;
7729;SDS011;3908;52.310;7.230;2023-02-28T14:56:17;2.40;;;2.20;;
7729;SDS011;3908;52.310;7.230;2023-02-28T14:59:21;2.00;;;1.80;;
7729;SDS011;3908;52.310;7.230;2023-02-28T15:02:24;4.93;;;2.00;;
7729;SDS011;3908;52.310;7.230;2023-02-28T15:05:21;3.10;;;1.90;;
7729;SDS011;3908;52.310;7.230;2023-02-28T15:08:12;2.10;;;1.90;;
7729;SDS011;3908;52.310;7.230;2023-02-28T15:11:01;2.23;;;1.83;;
7729;SDS011;3908;52.310;7.230;2023-02-28T15:13:53;2.63;;;1.77;;
7729;SDS011;3908;52.310;7.230;2023-02-28T15:16:42;3.07;;;2.10;;
7729;SDS011;3908;52.310;7.230;2023-02-28T15:19:31;2.00;;;1.90;;
7729;SDS011;3908;52.310;7.230;2023-02-28T15:22:23;4.70;;;2.00;;
7729;SDS011;3908;52.310;7.230;2023-02-28T15:25:18;1.70;;;1.60;;
7729;SDS011;3908;52.310;7.230;2023-02-28T15:28:09;2.43;;;2.10;;
7729;SDS011;3908;52.310;7.230;2023-02-28T15:31:03;3.97;;;2.07;;
7729;SDS011;3908;52.310;7.230;2023-02-28T15:34:12;2.53;;;2.00;;
7729;SDS011;3908;52.310;7.230;2023-02-28T15:37:06;4.73;;;1.70;;
7729;SDS011;3908;52.310;7.230;2023-02-28T15:40:13;1.97;;;1.70;;
7729;SDS011;3908;52.310;7.230;2023-02-28T15:43:13;2.10;;;1.90;;
7729;SDS011;3908;52.310;7.230;2023-02-28T15:46:04;2.13;;;1.93;;
7729;SDS011;3908;52.310;7.230;2023-02-28T15:48:55;2.97;;;2.00;;
7729;SDS011;3908;52.310;7.230;2023-02-28T15:51:43;3.17;;;2.00;;
7729;SDS011;3908;52.310;7.230;2023-02-28T15:54:32;2.87;;;2.00;;
7729;SDS011;3908;52.310;7.230;2023-02-28T15:57:21;4.00;;;2.10;;
7729;SDS011;3908;52.310;7.230;2023-02-28T16:00:12;1.77;;;1.67;;
7729;SDS011;3908;52.310;7.230;2023-02-28T16:03:21;2.60;;;1.90;;
7729;SDS011;3908;52.310;7.230;2023-02-28T16:06:19;2.57;;;1.90;;
7729;SDS011;3908;52.310;7.230;2023-02-28T16:09:13;3.97;;;2.13;;
7729;SDS011;3908;52.310;7.230;2023-02-28T16:12:01;2.30;;;2.10;;
7729;SDS011;3908;52.310;7.230;2023-02-28T16:14:50;2.37;;;1.73;;
7729;SDS011;3908;52.310;7.230;2023-02-28T16:17:38;2.20;;;2.00;;
7729;SDS011;3908;52.310;7.230;2023-02-28T16:20:28;5.13;;;2.20;;
7729;SDS011;3908;52.310;7.230;2023-02-28T16:23:15;5.80;;;2.20;;
7729;SDS011;3908;52.310;7.230;2023-02-28T16:26:03;3.87;;;2.10;;
7729;SDS011;3908;52.310;7.230;2023-02-28T16:28:51;3.17;;;2.33;;
7729;SDS011;3908;52.310;7.230;2023-02-28T16:31:39;2.70;;;2.27;;
7729;SDS011;3908;52.310;7.230;2023-02-28T16:34:26;2.50;;;2.23;;
7729;SDS011;3908;52.310;7.230;2023-02-28T16:37:15;4.77;;;2.23;;
7729;SDS011;3908;52.310;7.230;2023-02-28T16:40:05;2.13;;;1.97;;
7729;SDS011;3908;52.310;7.230;2023-02-28T16:42:54;3.83;;;2.40;;
7729;SDS011;3908;52.310;7.230;2023-02-28T16:45:44;2.93;;;2.20;;
7729;SDS011;3908;52.310;7.230;2023-02-28T16:48:34;3.37;;;2.33;;
7729;SDS011;3908;52.310;7.230;2023-02-28T16:51:21;3.33;;;2.47;;
7729;SDS011;3908;52.310;7.230;2023-02-28T16:54:10;3.13;;;2.43;;
7729;SDS011;3908;52.310;7.230;2023-02-28T16:56:57;3.93;;;2.00;;
7729;SDS011;3908;52.310;7.230;2023-02-28T16:59:44;2.20;;;1.93;;
7729;SDS011;3908;52.310;7.230;2023-02-28T17:02:31;4.07;;;2.93;;
7729;SDS011;3908;52.310;7.230;2023-02-28T17:05:18;2.60;;;2.17;;
7729;SDS011;3908;52.310;7.230;2023-02-28T17:08:05;2.43;;;2.23;;
7729;SDS011;3908;52.310;7.230;2023-02-28T17:10:53;3.67;;;2.60;;
7729;SDS011;3908;52.310;7.230;2023-02-28T17:13:40;3.70;;;2.37;;
7729;SDS011;3908;52.310;7.230;2023-02-28T17:16:28;3.63;;;2.40;;
7729;SDS011;3908;52.310;7.230;2023-02-28T17:19:17;3.93;;;2.43;;
7729;SDS011;3908;52.310;7.230;2023-02-28T17:22:04;3.13;;;2.30;;
7729;SDS011;3908;52.310;7.230;2023-02-28T17:24:51;3.60;;;2.20;;
7729;SDS011;3908;52.310;7.230;2023-02-28T17:27:42;4.43;;;2.77;;
7729;SDS011;3908;52.310;7.230;2023-02-28T17:30:31;2.27;;;2.07;;
7729;SDS011;3908;52.310;7.230;2023-02-28T17:33:21;4.07;;;2.47;;
7729;SDS011;3908;52.310;7.230;2023-02-28T17:36:09;4.63;;;2.60;;
7729;SDS011;3908;52.310;7.230;2023-02-28T17:39:00;3.17;;;2.63;;
7729;SDS011;3908;52.310;7.230;2023-02-28T17:41:47;3.73;;;2.50;;
7729;SDS011;3908;52.310;7.230;2023-02-28T17:44:36;5.70;;;2.57;;
7729;SDS011;3908;52.310;7.230;2023-02-28T17:47:23;3.53;;;2.70;;
7729;SDS011;3908;52.310;7.230;2023-02-28T17:50:11;4.70;;;2.53;;
7729;SDS011;3908;52.310;7.230;2023-02-28T17:53:01;2.70;;;2.50;;
7729;SDS011;3908;52.310;7.230;2023-02-28T17:55:48;2.40;;;2.13;;
7729;SDS011;3908;52.310;7.230;2023-02-28T17:58:35;3.20;;;2.53;;
7729;SDS011;3908;52.310;7.230;2023-02-28T18:01:23;4.50;;;2.97;;
7729;SDS011;3908;52.310;7.230;2023-02-28T18:04:11;4.40;;;2.90;;
7729;SDS011;3908;52.310;7.230;2023-02-28T18:06:59;3.63;;;2.70;;
7729;SDS011;3908;52.310;7.230;2023-02-28T18:09:46;3.07;;;2.37;;
7729;SDS011;3908;52.310;7.230;2023-02-28T18:12:33;4.20;;;2.83;;
7729;SDS011;3908;52.310;7.230;2023-02-28T18:15:20;4.40;;;2.83;;